sensor_id;sensor_type;location;lat;lon;timestamp;temperature;humidity
18384;DHT22;9318;48.644;9.456;2023-04-01T00:01:01;9.30;99.90
18384;DHT22;9318;48.644;9.456;2023-04-01T00:03:29;9.40;99.90
18384;DHT22;9318;48.644;9.456;2023-04-01T00:05:57;9.30;99.90
18384;DHT22;9318;48.644;9.456;2023-04-01T00:08:25;9.30;99.90
18384;DHT22;9318;48.644;9.456;2023-04-01T00:10:53;9.30;99.90
18384;DHT22;9318;48.644;9.456;2023-04-01T00:13:21;9.20;99.90
18384;DHT22;9318;48.644;9.456;2023-04-01T00:15:48;9.20;99.90
18384;DHT22;9318;48.644;9.456;2023-04-01T00:18:15;9.20;99.90
18384;DHT22;9318;48.644;9.456;2023-04-01T00:20:44;9.20;99.90
18384;DHT22;9318;48.644;9.456;2023-04-01T00:23:11;9.20;99.90
18384;DHT22;9318;48.644;9.456;2023-04-01T00:25:38;9.20;99.90
18384;DHT22;9318;48.644;9.456;2023-04-01T00:28:05;9.20;99.90
18384;DHT22;9318;48.644;9.456;2023-04-01T00:30:33;9.20;99.90
18384;DHT22;9318;48.644;9.456;2023-04-01T00:33:02;9.20;99.90
18384;DHT22;9318;48.644;9.456;2023-04-01T00:35:28;9.20;99.90
18384;DHT22;9318;48.644;9.456;2023-04-01T00:37:55;9.20;99.90
18384;DHT22;9318;48.644;9.456;2023-04-01T00:40:25;9.20;99.90
18384;DHT22;9318;48.644;9.456;2023-04-01T00:42:53;9.20;99.90
18384;DHT22;9318;48.644;9.456;2023-04-01T00:45:34;9.20;99.90
18384;DHT22;9318;48.644;9.456;2023-04-01T00:48:05;9.20;99.90
18384;DHT22;9318;48.644;9.456;2023-04-01T00:50:34;9.20;99.90
18384;DHT22;9318;48.644;9.456;2023-04-01T00:53:02;9.20;99.90
18384;DHT22;9318;48.644;9.456;2023-04-01T00:55:30;9.10;99.90
18384;DHT22;9318;48.644;9.456;2023-04-01T00:57:58;9.10;99.90
18384;DHT22;9318;48.644;9.456;2023-04-01T01:00:26;9.10;99.90
18384;DHT22;9318;48.644;9.456;2023-04-01T01:02:54;9.10;99.90
18384;DHT22;9318;48.644;9.456;2023-04-01T01:05:26;9.10;99.90
18384;DHT22;9318;48.644;9.456;2023-04-01T01:08:02;9.10;99.90
18384;DHT22;9318;48.644;9.456;2023-04-01T01:10:31;9.20;99.90
18384;DHT22;9318;48.644;9.456;2023-04-01T01:13:05;9.10;99.90
18384;DHT22;9318;48.644;9.456;2023-04-01T01:15:37;9.10;99.90
18384;DHT22;9318;48.644;9.456;2023-04-01T01:18:16;9.10;99.90
18384;DHT22;9318;48.644;9.456;2023-04-01T01:21:05;9.20;99.90
18384;DHT22;9318;48.644;9.456;2023-04-01T01:26:42;9.20;99.90
18384;DHT22;9318;48.644;9.456;2023-04-01T01:32:17;9.20;99.90
18384;DHT22;9318;48.644;9.456;2023-04-01T01:34:51;9.20;99.90
18384;DHT22;9318;48.644;9.456;2023-04-01T01:37:24;9.20;99.90
18384;DHT22;9318;48.644;9.456;2023-04-01T01:39:55;9.10;99.90
18384;DHT22;9318;48.644;9.456;2023-04-01T01:42:25;9.10;99.90
18384;DHT22;9318;48.644;9.456;2023-04-01T01:44:54;9.10;99.90
18384;DHT22;9318;48.644;9.456;2023-04-01T01:47:23;9.10;99.90
18384;DHT22;9318;48.644;9.456;2023-04-01T01:49:52;9.10;99.90
18384;DHT22;9318;48.644;9.456;2023-04-01T01:52:21;9.10;99.90
18384;DHT22;9318;48.644;9.456;2023-04-01T01:54:48;9.10;99.90
18384;DHT22;9318;48.644;9.456;2023-04-01T01:57:17;9.10;99.90
18384;DHT22;9318;48.644;9.456;2023-04-01T01:59:46;9.10;99.90
18384;DHT22;9318;48.644;9.456;2023-04-01T02:02:14;9.10;99.90
18384;DHT22;9318;48.644;9.456;2023-04-01T02:04:43;9.10;99.90
18384;DHT22;9318;48.644;9.456;2023-04-01T02:07:16;9.00;99.90
18384;DHT22;9318;48.644;9.456;2023-04-01T02:09:46;9.00;99.90
18384;DHT22;9318;48.644;9.456;2023-04-01T02:12:15;9.00;99.90
18384;DHT22;9318;48.644;9.456;2023-04-01T02:14:45;9.00;99.90
18384;DHT22;9318;48.644;9.456;2023-04-01T02:17:16;9.00;99.90
18384;DHT22;9318;48.644;9.456;2023-04-01T02:19:47;8.90;99.90
18384;DHT22;9318;48.644;9.456;2023-04-01T02:22:18;8.90;99.90
18384;DHT22;9318;48.644;9.456;2023-04-01T02:24:50;8.90;99.90
18384;DHT22;9318;48.644;9.456;2023-04-01T02:27:17;8.90;99.90
18384;DHT22;9318;48.644;9.456;2023-04-01T02:29:44;8.90;99.90
18384;DHT22;9318;48.644;9.456;2023-04-01T02:32:13;8.80;99.90
18384;DHT22;9318;48.644;9.456;2023-04-01T02:34:41;8.80;99.90
18384;DHT22;9318;48.644;9.456;2023-04-01T02:37:09;8.80;99.90
18384;DHT22;9318;48.644;9.456;2023-04-01T02:39:37;8.80;99.90
18384;DHT22;9318;48.644;9.456;2023-04-01T02:42:05;8.80;99.90
18384;DHT22;9318;48.644;9.456;2023-04-01T02:44:32;8.80;99.90
18384;DHT22;9318;48.644;9.456;2023-04-01T02:46:58;8.80;99.90
18384;DHT22;9318;48.644;9.456;2023-04-01T02:49:25;8.80;99.90
18384;DHT22;9318;48.644;9.456;2023-04-01T02:51:52;8.80;99.90
18384;DHT22;9318;48.644;9.456;2023-04-01T02:54:19;8.80;99.90
18384;DHT22;9318;48.644;9.456;2023-04-01T02:56:45;8.70;99.90
18384;DHT22;9318;48.644;9.456;2023-04-01T02:59:14;8.70;99.90
18384;DHT22;9318;48.644;9.456;2023-04-01T03:01:41;8.70;99.90
18384;DHT22;9318;48.644;9.456;2023-04-01T03:04:07;8.70;99.90
18384;DHT22;9318;48.644;9.456;2023-04-01T03:06:34;8.70;99.90
18384;DHT22;9318;48.644;9.456;2023-04-01T03:09:01;8.70;99.90
18384;DHT22;9318;48.644;9.456;2023-04-01T03:11:28;8.70;99.90
18384;DHT22;9318;48.644;9.456;2023-04-01T03:13:55;8.60;99.90
18384;DHT22;9318;48.644;9.456;2023-04-01T03:16:23;8.60;99.90
18384;DHT22;9318;48.644;9.456;2023-04-01T03:18:50;8.60;99.90
18384;DHT22;9318;48.644;9.456;2023-04-01T03:21:19;8.50;99.90
18384;DHT22;9318;48.644;9.456;2023-04-01T03:23:46;8.60;99.90
18384;DHT22;9318;48.644;9.456;2023-04-01T03:26:13;8.50;99.90
18384;DHT22;9318;48.644;9.456;2023-04-01T03:28:40;8.60;99.90
18384;DHT22;9318;48.644;9.456;2023-04-01T03:31:06;8.60;99.90
18384;DHT22;9318;48.644;9.456;2023-04-01T03:33:35;8.60;99.90
18384;DHT22;9318;48.644;9.456;2023-04-01T03:36:02;8.60;99.90
18384;DHT22;9318;48.644;9.456;2023-04-01T03:38:31;8.60;99.90
18384;DHT22;9318;48.644;9.456;2023-04-01T03:40:58;8.60;99.90
18384;DHT22;9318;48.644;9.456;2023-04-01T03:43:25;8.50;99.90
18384;DHT22;9318;48.644;9.456;2023-04-01T03:45:52;8.50;99.90
18384;DHT22;9318;48.644;9.456;2023-04-01T03:48:19;8.50;99.90
18384;DHT22;9318;48.644;9.456;2023-04-01T03:50:48;8.40;99.90
18384;DHT22;9318;48.644;9.456;2023-04-01T03:53:14;8.40;99.90
18384;DHT22;9318;48.644;9.456;2023-04-01T03:55:41;8.40;99.90
18384;DHT22;9318;48.644;9.456;2023-04-01T03:58:09;8.40;99.90
18384;DHT22;9318;48.644;9.456;2023-04-01T04:00:35;8.40;99.90
18384;DHT22;9318;48.644;9.456;2023-04-01T04:03:02;8.40;99.90
18384;DHT22;9318;48.644;9.456;2023-04-01T04:05:29;8.50;99.90
18384;DHT22;9318;48.644;9.456;2023-04-01T04:07:57;8.50;99.90
18384;DHT22;9318;48.644;9.456;2023-04-01T04:10:24;8.50;99.90
18384;DHT22;9318;48.644;9.456;2023-04-01T04:12:51;8.50;99.90
18384;DHT22;9318;48.644;9.456;2023-04-01T04:15:18;8.50;99.90
18384;DHT22;9318;48.644;9.456;2023-04-01T04:17:45;8.50;99.90
18384;DHT22;9318;48.644;9.456;2023-04-01T04:20:12;8.50;99.90
18384;DHT22;9318;48.644;9.456;2023-04-01T04:22:39;8.50;99.90
18384;DHT22;9318;48.644;9.456;2023-04-01T04:25:08;8.50;99.90
18384;DHT22;9318;48.644;9.456;2023-04-01T04:27:35;8.40;99.90
18384;DHT22;9318;48.644;9.456;2023-04-01T04:30:02;8.40;99.90
18384;DHT22;9318;48.644;9.456;2023-04-01T04:32:30;8.40;99.90
18384;DHT22;9318;48.644;9.456;2023-04-01T04:34:56;8.40;99.90
18384;DHT22;9318;48.644;9.456;2023-04-01T04:37:23;8.40;99.90
18384;DHT22;9318;48.644;9.456;2023-04-01T04:39:51;8.40;99.90
18384;DHT22;9318;48.644;9.456;2023-04-01T04:42:19;8.40;99.90
18384;DHT22;9318;48.644;9.456;2023-04-01T04:44:46;8.40;99.90
18384;DHT22;9318;48.644;9.456;2023-04-01T04:47:13;8.40;99.90
18384;DHT22;9318;48.644;9.456;2023-04-01T04:49:39;8.40;99.90
18384;DHT22;9318;48.644;9.456;2023-04-01T04:52:06;8.30;99.90
18384;DHT22;9318;48.644;9.456;2023-04-01T04:54:33;8.30;99.90
18384;DHT22;9318;48.644;9.456;2023-04-01T04:57:00;8.30;99.90
18384;DHT22;9318;48.644;9.456;2023-04-01T04:59:28;8.30;99.90
18384;DHT22;9318;48.644;9.456;2023-04-01T05:01:54;8.30;99.90
18384;DHT22;9318;48.644;9.456;2023-04-01T05:04:21;8.30;99.90
18384;DHT22;9318;48.644;9.456;2023-04-01T05:06:48;8.20;99.90
18384;DHT22;9318;48.644;9.456;2023-04-01T05:09:15;8.20;99.90
18384;DHT22;9318;48.644;9.456;2023-04-01T05:11:42;8.20;99.90
18384;DHT22;9318;48.644;9.456;2023-04-01T05:14:12;8.20;99.90
18384;DHT22;9318;48.644;9.456;2023-04-01T05:16:41;8.30;99.90
18384;DHT22;9318;48.644;9.456;2023-04-01T05:19:08;8.30;99.90
18384;DHT22;9318;48.644;9.456;2023-04-01T05:21:34;8.40;99.90
18384;DHT22;9318;48.644;9.456;2023-04-01T05:24:01;8.40;99.90
18384;DHT22;9318;48.644;9.456;2023-04-01T05:26:28;8.40;99.90
18384;DHT22;9318;48.644;9.456;2023-04-01T05:28:55;8.40;99.90
18384;DHT22;9318;48.644;9.456;2023-04-01T05:31:21;8.40;99.90
18384;DHT22;9318;48.644;9.456;2023-04-01T05:33:50;8.50;99.90
18384;DHT22;9318;48.644;9.456;2023-04-01T05:36:17;8.50;99.90
18384;DHT22;9318;48.644;9.456;2023-04-01T05:38:44;8.50;99.90
18384;DHT22;9318;48.644;9.456;2023-04-01T05:41:12;8.50;99.90
18384;DHT22;9318;48.644;9.456;2023-04-01T05:43:40;8.50;99.90
18384;DHT22;9318;48.644;9.456;2023-04-01T05:46:07;8.50;99.90
18384;DHT22;9318;48.644;9.456;2023-04-01T05:48:34;8.60;99.90
18384;DHT22;9318;48.644;9.456;2023-04-01T05:51:03;8.60;99.90
18384;DHT22;9318;48.644;9.456;2023-04-01T05:53:30;8.60;99.90
18384;DHT22;9318;48.644;9.456;2023-04-01T05:56:01;8.60;99.90
18384;DHT22;9318;48.644;9.456;2023-04-01T05:58:28;8.70;99.90
18384;DHT22;9318;48.644;9.456;2023-04-01T06:01:00;8.70;99.90
18384;DHT22;9318;48.644;9.456;2023-04-01T06:03:27;8.70;99.90
18384;DHT22;9318;48.644;9.456;2023-04-01T06:05:54;8.70;99.90
18384;DHT22;9318;48.644;9.456;2023-04-01T06:08:22;8.80;99.90
18384;DHT22;9318;48.644;9.456;2023-04-01T06:10:56;8.90;99.90
18384;DHT22;9318;48.644;9.456;2023-04-01T06:13:34;9.00;99.90
18384;DHT22;9318;48.644;9.456;2023-04-01T06:16:11;9.00;99.90
18384;DHT22;9318;48.644;9.456;2023-04-01T06:18:48;9.00;99.90
18384;DHT22;9318;48.644;9.456;2023-04-01T06:24:31;9.00;99.90
18384;DHT22;9318;48.644;9.456;2023-04-01T06:27:10;9.10;99.90
18384;DHT22;9318;48.644;9.456;2023-04-01T06:29:55;9.10;99.90
18384;DHT22;9318;48.644;9.456;2023-04-01T06:32:45;9.10;99.90
18384;DHT22;9318;48.644;9.456;2023-04-01T06:35:24;9.20;99.90
18384;DHT22;9318;48.644;9.456;2023-04-01T06:38:09;9.30;99.90
18384;DHT22;9318;48.644;9.456;2023-04-01T06:43:37;9.30;99.90
18384;DHT22;9318;48.644;9.456;2023-04-01T06:46:14;9.30;99.90
18384;DHT22;9318;48.644;9.456;2023-04-01T06:49:02;9.40;99.90
18384;DHT22;9318;48.644;9.456;2023-04-01T06:51:35;9.40;99.90
18384;DHT22;9318;48.644;9.456;2023-04-01T06:54:10;9.50;99.90
18384;DHT22;9318;48.644;9.456;2023-04-01T06:56:41;9.50;99.90
18384;DHT22;9318;48.644;9.456;2023-04-01T06:59:12;9.50;99.90
18384;DHT22;9318;48.644;9.456;2023-04-01T07:01:45;9.50;99.90
18384;DHT22;9318;48.644;9.456;2023-04-01T07:04:17;9.50;99.90
18384;DHT22;9318;48.644;9.456;2023-04-01T07:06:48;9.50;99.90
18384;DHT22;9318;48.644;9.456;2023-04-01T07:09:19;9.50;99.90
18384;DHT22;9318;48.644;9.456;2023-04-01T07:11:49;9.50;99.90
18384;DHT22;9318;48.644;9.456;2023-04-01T07:14:20;9.40;99.90
18384;DHT22;9318;48.644;9.456;2023-04-01T07:16:51;9.50;99.90
18384;DHT22;9318;48.644;9.456;2023-04-01T07:19:24;9.40;99.90
18384;DHT22;9318;48.644;9.456;2023-04-01T07:21:56;9.40;99.90
18384;DHT22;9318;48.644;9.456;2023-04-01T07:24:27;9.50;99.90
18384;DHT22;9318;48.644;9.456;2023-04-01T07:26:57;9.40;99.90
18384;DHT22;9318;48.644;9.456;2023-04-01T07:29:25;9.50;99.90
18384;DHT22;9318;48.644;9.456;2023-04-01T07:32:17;9.50;99.90
18384;DHT22;9318;48.644;9.456;2023-04-01T07:34:53;9.50;99.90
18384;DHT22;9318;48.644;9.456;2023-04-01T07:37:27;9.60;99.90
18384;DHT22;9318;48.644;9.456;2023-04-01T07:40:02;9.60;99.90
18384;DHT22;9318;48.644;9.456;2023-04-01T07:42:43;9.70;99.90
18384;DHT22;9318;48.644;9.456;2023-04-01T07:45:18;9.70;99.90
18384;DHT22;9318;48.644;9.456;2023-04-01T07:48:00;9.60;99.90
18384;DHT22;9318;48.644;9.456;2023-04-01T07:50:31;9.70;99.90
18384;DHT22;9318;48.644;9.456;2023-04-01T07:53:07;9.70;99.90
18384;DHT22;9318;48.644;9.456;2023-04-01T07:55:40;9.70;99.90
18384;DHT22;9318;48.644;9.456;2023-04-01T07:58:15;9.70;99.90
18384;DHT22;9318;48.644;9.456;2023-04-01T08:00:48;9.70;99.90
18384;DHT22;9318;48.644;9.456;2023-04-01T08:03:31;9.60;99.90
18384;DHT22;9318;48.644;9.456;2023-04-01T08:06:04;9.70;99.90
18384;DHT22;9318;48.644;9.456;2023-04-01T08:08:43;9.70;99.90
18384;DHT22;9318;48.644;9.456;2023-04-01T08:11:24;9.80;99.90
18384;DHT22;9318;48.644;9.456;2023-04-01T08:14:03;9.70;99.90
18384;DHT22;9318;48.644;9.456;2023-04-01T08:16:37;9.80;99.90
18384;DHT22;9318;48.644;9.456;2023-04-01T08:19:18;9.80;99.90
18384;DHT22;9318;48.644;9.456;2023-04-01T08:21:51;9.80;99.90
18384;DHT22;9318;48.644;9.456;2023-04-01T08:24:25;9.90;99.90
18384;DHT22;9318;48.644;9.456;2023-04-01T08:26:56;9.90;99.90
18384;DHT22;9318;48.644;9.456;2023-04-01T08:29:30;9.90;99.90
18384;DHT22;9318;48.644;9.456;2023-04-01T08:32:00;9.90;99.90
18384;DHT22;9318;48.644;9.456;2023-04-01T08:34:34;9.90;99.90
18384;DHT22;9318;48.644;9.456;2023-04-01T08:37:05;9.90;99.90
18384;DHT22;9318;48.644;9.456;2023-04-01T08:39:36;9.90;99.90
18384;DHT22;9318;48.644;9.456;2023-04-01T08:45:21;10.00;99.90
18384;DHT22;9318;48.644;9.456;2023-04-01T08:48:08;9.90;99.90
18384;DHT22;9318;48.644;9.456;2023-04-01T08:51:04;10.00;99.90
18384;DHT22;9318;48.644;9.456;2023-04-01T08:53:46;10.00;99.90
18384;DHT22;9318;48.644;9.456;2023-04-01T08:56:19;9.90;99.90
18384;DHT22;9318;48.644;9.456;2023-04-01T09:02:12;9.90;99.90
18384;DHT22;9318;48.644;9.456;2023-04-01T09:04:58;9.80;99.90
18384;DHT22;9318;48.644;9.456;2023-04-01T09:07:40;9.70;99.90
18384;DHT22;9318;48.644;9.456;2023-04-01T09:10:28;9.60;99.90
18384;DHT22;9318;48.644;9.456;2023-04-01T09:13:20;9.50;99.90
18384;DHT22;9318;48.644;9.456;2023-04-01T09:19:22;9.30;99.90
18384;DHT22;9318;48.644;9.456;2023-04-01T09:22:20;9.30;99.90
18384;DHT22;9318;48.644;9.456;2023-04-01T09:25:05;9.30;99.90
18384;DHT22;9318;48.644;9.456;2023-04-01T09:27:44;9.30;99.90
18384;DHT22;9318;48.644;9.456;2023-04-01T09:30:33;9.30;99.90
18384;DHT22;9318;48.644;9.456;2023-04-01T09:36:28;9.40;99.90
18384;DHT22;9318;48.644;9.456;2023-04-01T09:39:18;9.40;99.90
18384;DHT22;9318;48.644;9.456;2023-04-01T09:42:14;9.50;99.90
18384;DHT22;9318;48.644;9.456;2023-04-01T09:44:45;9.60;99.90
18384;DHT22;9318;48.644;9.456;2023-04-01T09:47:26;9.60;99.90
18384;DHT22;9318;48.644;9.456;2023-04-01T09:50:20;9.60;99.90
18384;DHT22;9318;48.644;9.456;2023-04-01T09:53:02;9.70;99.90
18384;DHT22;9318;48.644;9.456;2023-04-01T09:56:01;9.70;99.90
18384;DHT22;9318;48.644;9.456;2023-04-01T09:58:57;9.80;99.90
18384;DHT22;9318;48.644;9.456;2023-04-01T10:01:57;9.80;99.90
18384;DHT22;9318;48.644;9.456;2023-04-01T10:11:15;9.90;99.90
18384;DHT22;9318;48.644;9.456;2023-04-01T10:14:16;9.80;99.90
18384;DHT22;9318;48.644;9.456;2023-04-01T10:17:20;9.70;99.90
18384;DHT22;9318;48.644;9.456;2023-04-01T10:20:18;9.70;99.90
18384;DHT22;9318;48.644;9.456;2023-04-01T10:26:18;9.70;99.90
18384;DHT22;9318;48.644;9.456;2023-04-01T10:29:31;9.80;99.90
18384;DHT22;9318;48.644;9.456;2023-04-01T10:32:29;9.80;99.90
18384;DHT22;9318;48.644;9.456;2023-04-01T10:35:24;9.80;99.90
18384;DHT22;9318;48.644;9.456;2023-04-01T10:41:13;9.80;99.90
18384;DHT22;9318;48.644;9.456;2023-04-01T10:47:21;10.00;99.90
18384;DHT22;9318;48.644;9.456;2023-04-01T10:50:10;10.00;99.90
18384;DHT22;9318;48.644;9.456;2023-04-01T10:56:10;10.00;99.90
18384;DHT22;9318;48.644;9.456;2023-04-01T10:59:30;10.10;99.90
18384;DHT22;9318;48.644;9.456;2023-04-01T11:02:44;10.00;99.90
18384;DHT22;9318;48.644;9.456;2023-04-01T11:12:08;9.90;99.90
18384;DHT22;9318;48.644;9.456;2023-04-01T11:15:06;9.80;99.90
18384;DHT22;9318;48.644;9.456;2023-04-01T11:18:03;9.80;99.90
18384;DHT22;9318;48.644;9.456;2023-04-01T11:21:02;9.80;99.90
18384;DHT22;9318;48.644;9.456;2023-04-01T11:24:00;9.80;99.90
18384;DHT22;9318;48.644;9.456;2023-04-01T11:26:35;9.70;99.90
18384;DHT22;9318;48.644;9.456;2023-04-01T11:29:31;9.80;99.90
18384;DHT22;9318;48.644;9.456;2023-04-01T11:32:08;9.80;99.90
18384;DHT22;9318;48.644;9.456;2023-04-01T11:34:55;9.90;99.90
18384;DHT22;9318;48.644;9.456;2023-04-01T11:37:32;10.00;99.90
18384;DHT22;9318;48.644;9.456;2023-04-01T11:40:11;10.00;99.90
18384;DHT22;9318;48.644;9.456;2023-04-01T11:42:45;9.90;99.90
18384;DHT22;9318;48.644;9.456;2023-04-01T11:45:30;10.00;99.90
18384;DHT22;9318;48.644;9.456;2023-04-01T11:48:13;10.10;99.90
18384;DHT22;9318;48.644;9.456;2023-04-01T11:50:53;10.10;99.90
18384;DHT22;9318;48.644;9.456;2023-04-01T11:53:27;10.20;99.90
18384;DHT22;9318;48.644;9.456;2023-04-01T11:56:22;10.30;99.90
18384;DHT22;9318;48.644;9.456;2023-04-01T12:01:58;10.40;99.90
18384;DHT22;9318;48.644;9.456;2023-04-01T12:04:56;10.40;99.90
18384;DHT22;9318;48.644;9.456;2023-04-01T12:10:18;10.50;99.90
18384;DHT22;9318;48.644;9.456;2023-04-01T12:12:54;10.50;99.90
18384;DHT22;9318;48.644;9.456;2023-04-01T12:15:32;10.60;99.90
18384;DHT22;9318;48.644;9.456;2023-04-01T12:18:10;10.60;99.90
18384;DHT22;9318;48.644;9.456;2023-04-01T12:20:48;10.60;99.90
18384;DHT22;9318;48.644;9.456;2023-04-01T12:23:29;10.60;99.90
18384;DHT22;9318;48.644;9.456;2023-04-01T12:26:15;10.50;99.90
18384;DHT22;9318;48.644;9.456;2023-04-01T12:28:54;10.40;99.90
18384;DHT22;9318;48.644;9.456;2023-04-01T12:31:31;10.40;99.90
18384;DHT22;9318;48.644;9.456;2023-04-01T12:37:18;10.30;99.90
18384;DHT22;9318;48.644;9.456;2023-04-01T12:42:51;10.30;99.90
18384;DHT22;9318;48.644;9.456;2023-04-01T12:45:31;10.40;99.90
18384;DHT22;9318;48.644;9.456;2023-04-01T12:48:35;10.40;99.90
18384;DHT22;9318;48.644;9.456;2023-04-01T12:51:22;10.40;99.90
18384;DHT22;9318;48.644;9.456;2023-04-01T12:54:17;10.30;99.90
18384;DHT22;9318;48.644;9.456;2023-04-01T12:57:02;10.40;99.90
18384;DHT22;9318;48.644;9.456;2023-04-01T12:59:50;10.30;99.90
18384;DHT22;9318;48.644;9.456;2023-04-01T13:02:31;10.30;99.90
18384;DHT22;9318;48.644;9.456;2023-04-01T13:05:20;10.40;99.90
18384;DHT22;9318;48.644;9.456;2023-04-01T13:07:56;10.40;99.90
18384;DHT22;9318;48.644;9.456;2023-04-01T13:10:41;10.50;99.90
18384;DHT22;9318;48.644;9.456;2023-04-01T13:13:24;10.50;99.90
18384;DHT22;9318;48.644;9.456;2023-04-01T13:15:56;10.50;99.90
18384;DHT22;9318;48.644;9.456;2023-04-01T13:18:31;10.50;99.90
18384;DHT22;9318;48.644;9.456;2023-04-01T13:21:06;10.60;99.90
18384;DHT22;9318;48.644;9.456;2023-04-01T13:23:48;10.60;99.90
18384;DHT22;9318;48.644;9.456;2023-04-01T13:26:23;10.60;99.90
18384;DHT22;9318;48.644;9.456;2023-04-01T13:28:56;10.70;99.90
18384;DHT22;9318;48.644;9.456;2023-04-01T13:31:43;10.70;99.90
18384;DHT22;9318;48.644;9.456;2023-04-01T13:34:23;10.70;99.90
18384;DHT22;9318;48.644;9.456;2023-04-01T13:37:03;10.70;99.90
18384;DHT22;9318;48.644;9.456;2023-04-01T13:39:43;10.70;99.90
18384;DHT22;9318;48.644;9.456;2023-04-01T13:42:21;10.70;99.90
18384;DHT22;9318;48.644;9.456;2023-04-01T13:46:27;10.70;99.90
18384;DHT22;9318;48.644;9.456;2023-04-01T13:49:16;10.80;99.90
18384;DHT22;9318;48.644;9.456;2023-04-01T13:55:06;10.90;99.90
18384;DHT22;9318;48.644;9.456;2023-04-01T13:57:43;11.00;99.90
18384;DHT22;9318;48.644;9.456;2023-04-01T14:00:22;11.00;99.90
18384;DHT22;9318;48.644;9.456;2023-04-01T14:03:09;11.00;99.90
18384;DHT22;9318;48.644;9.456;2023-04-01T14:05:50;11.10;99.90
18384;DHT22;9318;48.644;9.456;2023-04-01T14:08:32;11.10;99.90
18384;DHT22;9318;48.644;9.456;2023-04-01T14:11:10;11.10;99.90
18384;DHT22;9318;48.644;9.456;2023-04-01T14:13:43;11.10;99.90
18384;DHT22;9318;48.644;9.456;2023-04-01T14:16:49;11.00;99.90
18384;DHT22;9318;48.644;9.456;2023-04-01T14:19:34;11.00;99.90
18384;DHT22;9318;48.644;9.456;2023-04-01T14:22:13;11.00;99.90
18384;DHT22;9318;48.644;9.456;2023-04-01T14:24:57;10.90;99.90
18384;DHT22;9318;48.644;9.456;2023-04-01T14:27:44;11.00;99.90
18384;DHT22;9318;48.644;9.456;2023-04-01T14:30:27;10.90;99.90
18384;DHT22;9318;48.644;9.456;2023-04-01T14:33:05;10.90;99.90
18384;DHT22;9318;48.644;9.456;2023-04-01T14:35:45;10.80;99.90
18384;DHT22;9318;48.644;9.456;2023-04-01T14:38:32;10.80;99.90
18384;DHT22;9318;48.644;9.456;2023-04-01T14:41:11;10.70;99.90
18384;DHT22;9318;48.644;9.456;2023-04-01T14:44:18;10.70;99.90
18384;DHT22;9318;48.644;9.456;2023-04-01T14:47:15;10.70;99.90
18384;DHT22;9318;48.644;9.456;2023-04-01T14:49:52;10.70;99.90
18384;DHT22;9318;48.644;9.456;2023-04-01T14:52:27;10.60;99.90
18384;DHT22;9318;48.644;9.456;2023-04-01T14:54:56;10.60;99.90
18384;DHT22;9318;48.644;9.456;2023-04-01T14:57:25;10.50;99.90
18384;DHT22;9318;48.644;9.456;2023-04-01T14:59:58;10.40;99.90
18384;DHT22;9318;48.644;9.456;2023-04-01T15:02:41;10.40;99.90
18384;DHT22;9318;48.644;9.456;2023-04-01T15:05:16;10.30;99.90
18384;DHT22;9318;48.644;9.456;2023-04-01T15:08:12;10.30;99.90
18384;DHT22;9318;48.644;9.456;2023-04-01T15:13:56;10.30;99.90
18384;DHT22;9318;48.644;9.456;2023-04-01T15:16:27;10.20;99.90
18384;DHT22;9318;48.644;9.456;2023-04-01T15:19:09;10.30;99.90
18384;DHT22;9318;48.644;9.456;2023-04-01T15:21:55;10.30;99.90
18384;DHT22;9318;48.644;9.456;2023-04-01T15:24:28;10.20;99.90
18384;DHT22;9318;48.644;9.456;2023-04-01T15:27:22;10.20;99.90
18384;DHT22;9318;48.644;9.456;2023-04-01T15:30:27;10.20;99.90
18384;DHT22;9318;48.644;9.456;2023-04-01T15:33:10;10.20;99.90
18384;DHT22;9318;48.644;9.456;2023-04-01T15:35:45;10.30;99.90
18384;DHT22;9318;48.644;9.456;2023-04-01T15:38:22;10.30;99.90
18384;DHT22;9318;48.644;9.456;2023-04-01T15:40:59;10.30;99.90
18384;DHT22;9318;48.644;9.456;2023-04-01T15:43:33;10.30;99.90
18384;DHT22;9318;48.644;9.456;2023-04-01T15:49:02;10.30;99.90
18384;DHT22;9318;48.644;9.456;2023-04-01T15:55:01;10.40;99.90
18384;DHT22;9318;48.644;9.456;2023-04-01T15:57:42;10.40;99.90
18384;DHT22;9318;48.644;9.456;2023-04-01T16:00:22;10.40;99.90
18384;DHT22;9318;48.644;9.456;2023-04-01T16:02:58;10.40;99.90
18384;DHT22;9318;48.644;9.456;2023-04-01T16:05:37;10.40;99.90
18384;DHT22;9318;48.644;9.456;2023-04-01T16:08:28;10.40;99.90
18384;DHT22;9318;48.644;9.456;2023-04-01T16:11:08;10.40;99.90
18384;DHT22;9318;48.644;9.456;2023-04-01T16:13:52;10.40;99.90
18384;DHT22;9318;48.644;9.456;2023-04-01T16:16:30;10.40;99.90
18384;DHT22;9318;48.644;9.456;2023-04-01T16:19:19;10.30;99.90
18384;DHT22;9318;48.644;9.456;2023-04-01T16:21:51;10.40;99.90
18384;DHT22;9318;48.644;9.456;2023-04-01T16:24:24;10.50;99.90
18384;DHT22;9318;48.644;9.456;2023-04-01T16:27:02;10.40;99.90
18384;DHT22;9318;48.644;9.456;2023-04-01T16:29:40;10.40;99.90
18384;DHT22;9318;48.644;9.456;2023-04-01T16:32:23;10.40;99.90
18384;DHT22;9318;48.644;9.456;2023-04-01T16:35:03;10.30;99.90
18384;DHT22;9318;48.644;9.456;2023-04-01T16:37:36;10.40;99.90
18384;DHT22;9318;48.644;9.456;2023-04-01T16:40:14;10.50;99.90
18384;DHT22;9318;48.644;9.456;2023-04-01T16:42:47;10.40;99.90
18384;DHT22;9318;48.644;9.456;2023-04-01T16:45:26;10.40;99.90
18384;DHT22;9318;48.644;9.456;2023-04-01T16:48:01;10.30;99.90
18384;DHT22;9318;48.644;9.456;2023-04-01T16:50:42;10.30;99.90
18384;DHT22;9318;48.644;9.456;2023-04-01T16:53:17;10.30;99.90
18384;DHT22;9318;48.644;9.456;2023-04-01T16:55:49;10.30;99.90
18384;DHT22;9318;48.644;9.456;2023-04-01T16:58:23;10.20;99.90
18384;DHT22;9318;48.644;9.456;2023-04-01T17:00:55;10.20;99.90
18384;DHT22;9318;48.644;9.456;2023-04-01T17:03:28;10.20;99.90
18384;DHT22;9318;48.644;9.456;2023-04-01T17:06:07;10.10;99.90
18384;DHT22;9318;48.644;9.456;2023-04-01T17:08:47;10.10;99.90
18384;DHT22;9318;48.644;9.456;2023-04-01T17:11:18;10.00;99.90
18384;DHT22;9318;48.644;9.456;2023-04-01T17:13:55;9.90;99.90
18384;DHT22;9318;48.644;9.456;2023-04-01T17:17:04;10.00;99.90
18384;DHT22;9318;48.644;9.456;2023-04-01T17:19:42;10.00;99.90
18384;DHT22;9318;48.644;9.456;2023-04-01T17:22:22;9.90;99.90
18384;DHT22;9318;48.644;9.456;2023-04-01T17:25:08;9.90;99.90
18384;DHT22;9318;48.644;9.456;2023-04-01T17:27:44;9.90;99.90
18384;DHT22;9318;48.644;9.456;2023-04-01T17:30:24;9.80;99.90
18384;DHT22;9318;48.644;9.456;2023-04-01T17:35:53;9.80;99.90
18384;DHT22;9318;48.644;9.456;2023-04-01T17:38:34;9.80;99.90
18384;DHT22;9318;48.644;9.456;2023-04-01T17:41:08;9.80;99.90
18384;DHT22;9318;48.644;9.456;2023-04-01T17:43:40;9.80;99.90
18384;DHT22;9318;48.644;9.456;2023-04-01T17:46:24;9.80;99.90
18384;DHT22;9318;48.644;9.456;2023-04-01T17:49:00;9.80;99.90
18384;DHT22;9318;48.644;9.456;2023-04-01T17:51:32;9.80;99.90
18384;DHT22;9318;48.644;9.456;2023-04-01T17:54:10;9.70;99.90
18384;DHT22;9318;48.644;9.456;2023-04-01T17:56:52;9.80;99.90
18384;DHT22;9318;48.644;9.456;2023-04-01T17:59:29;9.80;99.90
18384;DHT22;9318;48.644;9.456;2023-04-01T18:02:06;9.80;99.90
18384;DHT22;9318;48.644;9.456;2023-04-01T18:07:52;9.80;99.90
18384;DHT22;9318;48.644;9.456;2023-04-01T18:10:28;9.80;99.90
18384;DHT22;9318;48.644;9.456;2023-04-01T18:13:10;9.80;99.90
18384;DHT22;9318;48.644;9.456;2023-04-01T18:15:46;9.80;99.90
18384;DHT22;9318;48.644;9.456;2023-04-01T18:18:33;9.90;99.90